sensor_id;sensor_type;location;lat;lon;timestamp;temperature;humidity
13600;DHT22;6871;51.34740610;4.31323160;2023-02-11T00:01:43;16.00;67.40
13600;DHT22;6871;51.34740610;4.31323160;2023-02-11T00:04:13;16.00;67.50
13600;DHT22;6871;51.34740610;4.31323160;2023-02-11T00:06:44;15.90;67.50
13600;DHT22;6871;51.34740610;4.31323160;2023-02-11T00:09:13;15.90;67.50
13600;DHT22;6871;51.34740610;4.31323160;2023-02-11T00:11:43;15.90;67.70
13600;DHT22;6871;51.34740610;4.31323160;2023-02-11T00:14:12;15.90;67.80
13600;DHT22;6871;51.34740610;4.31323160;2023-02-11T00:16:42;15.80;67.80
13600;DHT22;6871;51.34740610;4.31323160;2023-02-11T00:19:11;15.80;67.70
13600;DHT22;6871;51.34740610;4.31323160;2023-02-11T00:21:41;15.80;67.90
13600;DHT22;6871;51.34740610;4.31323160;2023-02-11T00:24:10;15.80;68.00
13600;DHT22;6871;51.34740610;4.31323160;2023-02-11T00:26:40;15.80;68.20
13600;DHT22;6871;51.34740610;4.31323160;2023-02-11T00:29:10;15.80;68.20
13600;DHT22;6871;51.34740610;4.31323160;2023-02-11T00:31:39;15.80;68.20
13600;DHT22;6871;51.34740610;4.31323160;2023-02-11T00:34:09;15.70;68.00
13600;DHT22;6871;51.34740610;4.31323160;2023-02-11T00:36:38;15.80;68.20
13600;DHT22;6871;51.34740610;4.31323160;2023-02-11T00:39:08;15.70;68.20
13600;DHT22;6871;51.34740610;4.31323160;2023-02-11T00:41:38;15.70;68.30
13600;DHT22;6871;51.34740610;4.31323160;2023-02-11T00:44:07;15.70;68.40
13600;DHT22;6871;51.34740610;4.31323160;2023-02-11T00:46:36;15.70;68.40
13600;DHT22;6871;51.34740610;4.31323160;2023-02-11T00:49:06;15.70;68.30
13600;DHT22;6871;51.34740610;4.31323160;2023-02-11T00:51:35;15.70;68.30
13600;DHT22;6871;51.34740610;4.31323160;2023-02-11T00:54:05;15.70;68.40
13600;DHT22;6871;51.34740610;4.31323160;2023-02-11T00:56:34;15.70;68.40
13600;DHT22;6871;51.34740610;4.31323160;2023-02-11T00:59:04;15.70;68.40
13600;DHT22;6871;51.34740610;4.31323160;2023-02-11T01:01:34;15.70;68.40
13600;DHT22;6871;51.34740610;4.31323160;2023-02-11T01:04:04;15.70;68.40
13600;DHT22;6871;51.34740610;4.31323160;2023-02-11T01:06:33;15.70;68.40
13600;DHT22;6871;51.34740610;4.31323160;2023-02-11T01:09:02;15.60;68.30
13600;DHT22;6871;51.34740610;4.31323160;2023-02-11T01:11:32;15.70;68.40
13600;DHT22;6871;51.34740610;4.31323160;2023-02-11T01:14:02;15.70;68.40
13600;DHT22;6871;51.34740610;4.31323160;2023-02-11T01:16:31;15.70;68.40
13600;DHT22;6871;51.34740610;4.31323160;2023-02-11T01:19:00;15.70;68.40
13600;DHT22;6871;51.34740610;4.31323160;2023-02-11T01:21:30;15.70;68.40
13600;DHT22;6871;51.34740610;4.31323160;2023-02-11T01:23:59;15.70;68.40
13600;DHT22;6871;51.34740610;4.31323160;2023-02-11T01:26:28;15.70;68.40
13600;DHT22;6871;51.34740610;4.31323160;2023-02-11T01:28:58;15.60;68.30
13600;DHT22;6871;51.34740610;4.31323160;2023-02-11T01:31:28;15.70;68.40
13600;DHT22;6871;51.34740610;4.31323160;2023-02-11T01:33:58;15.60;68.50
13600;DHT22;6871;51.34740610;4.31323160;2023-02-11T01:36:27;15.60;68.40
13600;DHT22;6871;51.34740610;4.31323160;2023-02-11T01:38:56;15.60;68.40
13600;DHT22;6871;51.34740610;4.31323160;2023-02-11T01:41:26;15.60;68.40
13600;DHT22;6871;51.34740610;4.31323160;2023-02-11T01:43:57;15.60;68.40
13600;DHT22;6871;51.34740610;4.31323160;2023-02-11T01:46:36;15.60;68.40
13600;DHT22;6871;51.34740610;4.31323160;2023-02-11T01:49:08;15.60;68.50
13600;DHT22;6871;51.34740610;4.31323160;2023-02-11T01:51:41;15.60;68.60
13600;DHT22;6871;51.34740610;4.31323160;2023-02-11T02:07:48;15.60;68.30
13600;DHT22;6871;51.34740610;4.31323160;2023-02-11T02:10:22;15.40;69.50
13600;DHT22;6871;51.34740610;4.31323160;2023-02-11T02:12:53;15.40;69.40
13600;DHT22;6871;51.34740610;4.31323160;2023-02-11T02:15:29;15.50;69.30
13600;DHT22;6871;51.34740610;4.31323160;2023-02-11T02:18:06;15.50;69.30
13600;DHT22;6871;51.34740610;4.31323160;2023-02-11T02:32:56;15.50;69.10
13600;DHT22;6871;51.34740610;4.31323160;2023-02-11T02:35:31;15.50;69.10
13600;DHT22;6871;51.34740610;4.31323160;2023-02-11T02:38:04;15.50;69.00
13600;DHT22;6871;51.34740610;4.31323160;2023-02-11T02:40:35;15.50;69.10
13600;DHT22;6871;51.34740610;4.31323160;2023-02-11T02:43:08;15.50;69.00
13600;DHT22;6871;51.34740610;4.31323160;2023-02-11T02:45:38;15.50;69.00
13600;DHT22;6871;51.34740610;4.31323160;2023-02-11T02:48:22;15.60;69.00
13600;DHT22;6871;51.34740610;4.31323160;2023-02-11T02:50:55;15.60;69.10
13600;DHT22;6871;51.34740610;4.31323160;2023-02-11T02:53:28;15.50;68.50
13600;DHT22;6871;51.34740610;4.31323160;2023-02-11T02:56:01;15.50;69.00
13600;DHT22;6871;51.34740610;4.31323160;2023-02-11T02:58:43;15.50;69.00
13600;DHT22;6871;51.34740610;4.31323160;2023-02-11T03:01:18;15.50;69.00
13600;DHT22;6871;51.34740610;4.31323160;2023-02-11T03:03:51;15.50;69.10
13600;DHT22;6871;51.34740610;4.31323160;2023-02-11T03:06:24;15.50;69.00
13600;DHT22;6871;51.34740610;4.31323160;2023-02-11T03:08:56;15.60;69.10
13600;DHT22;6871;51.34740610;4.31323160;2023-02-11T03:11:28;15.50;69.10
13600;DHT22;6871;51.34740610;4.31323160;2023-02-11T03:13:59;15.50;69.10
13600;DHT22;6871;51.34740610;4.31323160;2023-02-11T03:16:30;15.50;69.00
13600;DHT22;6871;51.34740610;4.31323160;2023-02-11T03:21:51;15.60;69.10
13600;DHT22;6871;51.34740610;4.31323160;2023-02-11T03:24:24;15.60;69.10
13600;DHT22;6871;51.34740610;4.31323160;2023-02-11T03:26:57;15.60;69.10
13600;DHT22;6871;51.34740610;4.31323160;2023-02-11T03:29:32;15.60;69.10
13600;DHT22;6871;51.34740610;4.31323160;2023-02-11T03:32:05;15.60;69.10
13600;DHT22;6871;51.34740610;4.31323160;2023-02-11T03:34:39;15.60;69.10
13600;DHT22;6871;51.34740610;4.31323160;2023-02-11T03:37:11;15.60;69.10
13600;DHT22;6871;51.34740610;4.31323160;2023-02-11T03:39:45;15.60;69.10
13600;DHT22;6871;51.34740610;4.31323160;2023-02-11T03:42:16;15.60;69.00
13600;DHT22;6871;51.34740610;4.31323160;2023-02-11T03:44:49;15.60;69.00
13600;DHT22;6871;51.34740610;4.31323160;2023-02-11T03:47:20;15.60;69.00
13600;DHT22;6871;51.34740610;4.31323160;2023-02-11T03:49:52;15.60;69.00
13600;DHT22;6871;51.34740610;4.31323160;2023-02-11T03:52:24;15.60;69.00
13600;DHT22;6871;51.34740610;4.31323160;2023-02-11T03:54:56;15.60;69.10
13600;DHT22;6871;51.34740610;4.31323160;2023-02-11T03:57:27;15.60;69.10
13600;DHT22;6871;51.34740610;4.31323160;2023-02-11T03:59:57;15.60;69.00
13600;DHT22;6871;51.34740610;4.31323160;2023-02-11T04:02:29;15.60;69.00
13600;DHT22;6871;51.34740610;4.31323160;2023-02-11T04:05:00;15.60;69.00
13600;DHT22;6871;51.34740610;4.31323160;2023-02-11T04:07:29;15.60;69.00
13600;DHT22;6871;51.34740610;4.31323160;2023-02-11T04:09:58;15.60;69.00
13600;DHT22;6871;51.34740610;4.31323160;2023-02-11T04:12:28;15.60;69.00
13600;DHT22;6871;51.34740610;4.31323160;2023-02-11T04:14:57;15.60;69.00
13600;DHT22;6871;51.34740610;4.31323160;2023-02-11T04:17:27;15.60;69.00
13600;DHT22;6871;51.34740610;4.31323160;2023-02-11T04:19:57;15.70;69.00
13600;DHT22;6871;51.34740610;4.31323160;2023-02-11T04:22:26;15.70;69.00
13600;DHT22;6871;51.34740610;4.31323160;2023-02-11T04:24:55;15.60;69.00
13600;DHT22;6871;51.34740610;4.31323160;2023-02-11T04:27:25;15.70;69.10
13600;DHT22;6871;51.34740610;4.31323160;2023-02-11T04:29:54;15.60;69.00
13600;DHT22;6871;51.34740610;4.31323160;2023-02-11T04:32:24;15.70;69.10
13600;DHT22;6871;51.34740610;4.31323160;2023-02-11T04:34:53;15.70;69.10
13600;DHT22;6871;51.34740610;4.31323160;2023-02-11T04:37:22;15.70;69.20
13600;DHT22;6871;51.34740610;4.31323160;2023-02-11T04:39:52;15.70;69.10
13600;DHT22;6871;51.34740610;4.31323160;2023-02-11T04:42:22;15.70;69.10
13600;DHT22;6871;51.34740610;4.31323160;2023-02-11T04:44:52;15.70;69.00
13600;DHT22;6871;51.34740610;4.31323160;2023-02-11T04:47:21;15.70;69.00
13600;DHT22;6871;51.34740610;4.31323160;2023-02-11T04:49:50;15.70;69.00
13600;DHT22;6871;51.34740610;4.31323160;2023-02-11T04:52:20;15.70;69.00
13600;DHT22;6871;51.34740610;4.31323160;2023-02-11T04:54:50;15.70;69.00
13600;DHT22;6871;51.34740610;4.31323160;2023-02-11T04:57:19;15.70;69.00
13600;DHT22;6871;51.34740610;4.31323160;2023-02-11T04:59:49;15.70;69.10
13600;DHT22;6871;51.34740610;4.31323160;2023-02-11T05:02:19;15.70;69.00
13600;DHT22;6871;51.34740610;4.31323160;2023-02-11T05:04:48;15.70;69.00
13600;DHT22;6871;51.34740610;4.31323160;2023-02-11T05:07:18;15.70;69.00
13600;DHT22;6871;51.34740610;4.31323160;2023-02-11T05:09:47;15.70;69.00
13600;DHT22;6871;51.34740610;4.31323160;2023-02-11T05:12:16;15.70;69.00
13600;DHT22;6871;51.34740610;4.31323160;2023-02-11T05:14:46;15.70;69.00
13600;DHT22;6871;51.34740610;4.31323160;2023-02-11T05:17:15;15.70;69.10
13600;DHT22;6871;51.34740610;4.31323160;2023-02-11T05:19:45;15.70;69.00
13600;DHT22;6871;51.34740610;4.31323160;2023-02-11T05:22:14;15.70;69.00
13600;DHT22;6871;51.34740610;4.31323160;2023-02-11T05:24:44;15.70;69.10
13600;DHT22;6871;51.34740610;4.31323160;2023-02-11T05:27:13;15.70;69.00
13600;DHT22;6871;51.34740610;4.31323160;2023-02-11T05:29:42;15.70;69.00
13600;DHT22;6871;51.34740610;4.31323160;2023-02-11T05:32:11;15.70;69.00
13600;DHT22;6871;51.34740610;4.31323160;2023-02-11T05:34:42;15.70;69.10
13600;DHT22;6871;51.34740610;4.31323160;2023-02-11T05:37:11;15.70;69.10
13600;DHT22;6871;51.34740610;4.31323160;2023-02-11T05:39:40;15.70;69.90
13600;DHT22;6871;51.34740610;4.31323160;2023-02-11T05:42:10;15.70;69.60
13600;DHT22;6871;51.34740610;4.31323160;2023-02-11T05:44:40;15.70;69.10
13600;DHT22;6871;51.34740610;4.31323160;2023-02-11T05:47:09;15.70;69.10
13600;DHT22;6871;51.34740610;4.31323160;2023-02-11T05:49:38;15.70;69.10
13600;DHT22;6871;51.34740610;4.31323160;2023-02-11T05:52:08;15.70;69.10
13600;DHT22;6871;51.34740610;4.31323160;2023-02-11T05:54:37;15.70;69.10
13600;DHT22;6871;51.34740610;4.31323160;2023-02-11T05:57:06;15.70;69.10
13600;DHT22;6871;51.34740610;4.31323160;2023-02-11T05:59:36;15.70;69.10
13600;DHT22;6871;51.34740610;4.31323160;2023-02-11T06:02:06;15.70;69.00
13600;DHT22;6871;51.34740610;4.31323160;2023-02-11T06:04:36;15.70;69.10
13600;DHT22;6871;51.34740610;4.31323160;2023-02-11T06:07:06;15.70;69.10
13600;DHT22;6871;51.34740610;4.31323160;2023-02-11T06:09:36;15.70;69.10
13600;DHT22;6871;51.34740610;4.31323160;2023-02-11T06:12:06;15.70;69.10
13600;DHT22;6871;51.34740610;4.31323160;2023-02-11T06:14:36;15.70;69.10
13600;DHT22;6871;51.34740610;4.31323160;2023-02-11T06:17:06;15.70;69.10
13600;DHT22;6871;51.34740610;4.31323160;2023-02-11T06:19:35;15.70;69.20
13600;DHT22;6871;51.34740610;4.31323160;2023-02-11T06:22:05;15.70;69.10
13600;DHT22;6871;51.34740610;4.31323160;2023-02-11T06:24:34;15.70;69.10
13600;DHT22;6871;51.34740610;4.31323160;2023-02-11T06:27:05;15.70;69.10
13600;DHT22;6871;51.34740610;4.31323160;2023-02-11T06:29:34;15.70;69.10
13600;DHT22;6871;51.34740610;4.31323160;2023-02-11T06:32:04;15.70;69.10
13600;DHT22;6871;51.34740610;4.31323160;2023-02-11T06:34:33;15.70;69.10
13600;DHT22;6871;51.34740610;4.31323160;2023-02-11T06:37:03;15.70;69.10
13600;DHT22;6871;51.34740610;4.31323160;2023-02-11T06:39:32;15.70;69.10
13600;DHT22;6871;51.34740610;4.31323160;2023-02-11T06:42:02;15.70;69.10
13600;DHT22;6871;51.34740610;4.31323160;2023-02-11T06:44:31;15.70;69.10
13600;DHT22;6871;51.34740610;4.31323160;2023-02-11T06:47:00;15.70;69.10
13600;DHT22;6871;51.34740610;4.31323160;2023-02-11T06:49:30;15.70;69.10
13600;DHT22;6871;51.34740610;4.31323160;2023-02-11T06:51:59;15.70;69.10
13600;DHT22;6871;51.34740610;4.31323160;2023-02-11T06:54:30;15.70;69.10
13600;DHT22;6871;51.34740610;4.31323160;2023-02-11T06:56:59;15.70;69.20
13600;DHT22;6871;51.34740610;4.31323160;2023-02-11T06:59:29;15.70;69.20
13600;DHT22;6871;51.34740610;4.31323160;2023-02-11T07:01:59;15.70;69.20
13600;DHT22;6871;51.34740610;4.31323160;2023-02-11T07:04:28;15.70;69.20
13600;DHT22;6871;51.34740610;4.31323160;2023-02-11T07:06:57;15.70;69.20
13600;DHT22;6871;51.34740610;4.31323160;2023-02-11T07:09:27;15.70;69.20
13600;DHT22;6871;51.34740610;4.31323160;2023-02-11T07:11:56;15.70;69.20
13600;DHT22;6871;51.34740610;4.31323160;2023-02-11T07:14:25;15.70;69.30
13600;DHT22;6871;51.34740610;4.31323160;2023-02-11T07:16:55;15.70;69.30
13600;DHT22;6871;51.34740610;4.31323160;2023-02-11T07:19:25;15.70;69.30
13600;DHT22;6871;51.34740610;4.31323160;2023-02-11T07:21:54;15.70;69.30
13600;DHT22;6871;51.34740610;4.31323160;2023-02-11T07:24:23;15.70;69.30
13600;DHT22;6871;51.34740610;4.31323160;2023-02-11T07:26:53;15.70;69.30
13600;DHT22;6871;51.34740610;4.31323160;2023-02-11T07:29:23;15.70;69.30
13600;DHT22;6871;51.34740610;4.31323160;2023-02-11T07:31:52;15.70;69.30
13600;DHT22;6871;51.34740610;4.31323160;2023-02-11T07:34:22;15.70;69.30
13600;DHT22;6871;51.34740610;4.31323160;2023-02-11T07:36:52;15.70;69.30
13600;DHT22;6871;51.34740610;4.31323160;2023-02-11T07:39:21;15.70;69.30
13600;DHT22;6871;51.34740610;4.31323160;2023-02-11T07:41:53;15.70;69.30
13600;DHT22;6871;51.34740610;4.31323160;2023-02-11T07:44:23;15.70;69.40
13600;DHT22;6871;51.34740610;4.31323160;2023-02-11T07:46:52;15.70;69.40
13600;DHT22;6871;51.34740610;4.31323160;2023-02-11T07:49:22;15.70;69.50
13600;DHT22;6871;51.34740610;4.31323160;2023-02-11T07:51:51;15.70;69.50
13600;DHT22;6871;51.34740610;4.31323160;2023-02-11T07:54:21;15.70;69.40
13600;DHT22;6871;51.34740610;4.31323160;2023-02-11T07:56:50;15.70;69.40
13600;DHT22;6871;51.34740610;4.31323160;2023-02-11T07:59:19;15.70;69.40
13600;DHT22;6871;51.34740610;4.31323160;2023-02-11T08:01:49;15.80;69.40
13600;DHT22;6871;51.34740610;4.31323160;2023-02-11T08:04:18;15.70;69.20
13600;DHT22;6871;51.34740610;4.31323160;2023-02-11T08:06:47;15.80;69.30
13600;DHT22;6871;51.34740610;4.31323160;2023-02-11T08:09:18;15.80;69.30
13600;DHT22;6871;51.34740610;4.31323160;2023-02-11T08:11:48;15.80;69.20
13600;DHT22;6871;51.34740610;4.31323160;2023-02-11T08:14:18;15.80;69.30
13600;DHT22;6871;51.34740610;4.31323160;2023-02-11T08:16:47;15.80;69.30
13600;DHT22;6871;51.34740610;4.31323160;2023-02-11T08:19:17;15.80;69.30
13600;DHT22;6871;51.34740610;4.31323160;2023-02-11T08:21:46;15.80;69.40
13600;DHT22;6871;51.34740610;4.31323160;2023-02-11T08:24:16;15.80;69.30
13600;DHT22;6871;51.34740610;4.31323160;2023-02-11T08:29:34;15.80;69.30
13600;DHT22;6871;51.34740610;4.31323160;2023-02-11T08:32:04;15.70;69.90
13600;DHT22;6871;51.34740610;4.31323160;2023-02-11T08:34:45;15.70;70.00
13600;DHT22;6871;51.34740610;4.31323160;2023-02-11T08:37:16;15.70;69.90
13600;DHT22;6871;51.34740610;4.31323160;2023-02-11T08:39:46;15.70;69.80
13600;DHT22;6871;51.34740610;4.31323160;2023-02-11T08:42:16;15.70;69.70
13600;DHT22;6871;51.34740610;4.31323160;2023-02-11T08:44:46;15.70;69.60
13600;DHT22;6871;51.34740610;4.31323160;2023-02-11T08:47:16;15.70;69.60
13600;DHT22;6871;51.34740610;4.31323160;2023-02-11T08:49:49;15.70;69.60
13600;DHT22;6871;51.34740610;4.31323160;2023-02-11T08:52:20;15.70;69.60
13600;DHT22;6871;51.34740610;4.31323160;2023-02-11T08:54:50;15.70;69.60
13600;DHT22;6871;51.34740610;4.31323160;2023-02-11T08:57:25;15.70;69.60
13600;DHT22;6871;51.34740610;4.31323160;2023-02-11T08:59:57;15.80;69.60
13600;DHT22;6871;51.34740610;4.31323160;2023-02-11T09:02:26;15.70;69.90
13600;DHT22;6871;51.34740610;4.31323160;2023-02-11T09:04:56;15.70;69.90
13600;DHT22;6871;51.34740610;4.31323160;2023-02-11T09:07:26;15.70;69.90
13600;DHT22;6871;51.34740610;4.31323160;2023-02-11T09:09:56;15.70;69.80
13600;DHT22;6871;51.34740610;4.31323160;2023-02-11T09:12:27;15.70;69.80
13600;DHT22;6871;51.34740610;4.31323160;2023-02-11T09:14:57;15.70;69.80
13600;DHT22;6871;51.34740610;4.31323160;2023-02-11T09:17:27;15.70;69.80
13600;DHT22;6871;51.34740610;4.31323160;2023-02-11T09:19:56;15.70;69.70
13600;DHT22;6871;51.34740610;4.31323160;2023-02-11T09:22:26;15.70;70.00
13600;DHT22;6871;51.34740610;4.31323160;2023-02-11T09:24:56;15.70;70.10
13600;DHT22;6871;51.34740610;4.31323160;2023-02-11T09:27:26;15.70;70.50
13600;DHT22;6871;51.34740610;4.31323160;2023-02-11T09:29:56;15.70;70.60
13600;DHT22;6871;51.34740610;4.31323160;2023-02-11T09:32:26;15.70;70.30
13600;DHT22;6871;51.34740610;4.31323160;2023-02-11T09:34:56;15.70;70.30
13600;DHT22;6871;51.34740610;4.31323160;2023-02-11T09:37:25;15.70;70.20
13600;DHT22;6871;51.34740610;4.31323160;2023-02-11T09:39:55;15.80;70.10
13600;DHT22;6871;51.34740610;4.31323160;2023-02-11T09:45:37;15.80;70.30
13600;DHT22;6871;51.34740610;4.31323160;2023-02-11T09:48:11;15.80;70.10
13600;DHT22;6871;51.34740610;4.31323160;2023-02-11T09:50:43;15.70;70.10
13600;DHT22;6871;51.34740610;4.31323160;2023-02-11T09:53:17;15.70;70.50
13600;DHT22;6871;51.34740610;4.31323160;2023-02-11T09:55:50;15.70;70.40
13600;DHT22;6871;51.34740610;4.31323160;2023-02-11T09:58:26;15.70;70.40
13600;DHT22;6871;51.34740610;4.31323160;2023-02-11T10:01:01;15.70;70.30
13600;DHT22;6871;51.34740610;4.31323160;2023-02-11T10:03:49;15.80;70.30
13600;DHT22;6871;51.34740610;4.31323160;2023-02-11T10:06:30;15.80;70.30
13600;DHT22;6871;51.34740610;4.31323160;2023-02-11T10:09:07;15.70;70.30
13600;DHT22;6871;51.34740610;4.31323160;2023-02-11T10:11:40;15.80;71.20
13600;DHT22;6871;51.34740610;4.31323160;2023-02-11T10:14:20;15.80;70.40
13600;DHT22;6871;51.34740610;4.31323160;2023-02-11T10:16:57;15.80;70.40
13600;DHT22;6871;51.34740610;4.31323160;2023-02-11T10:19:37;15.80;70.30
13600;DHT22;6871;51.34740610;4.31323160;2023-02-11T10:22:16;15.80;70.30
13600;DHT22;6871;51.34740610;4.31323160;2023-02-11T10:24:51;15.70;70.60
13600;DHT22;6871;51.34740610;4.31323160;2023-02-11T10:27:35;15.80;70.50
13600;DHT22;6871;51.34740610;4.31323160;2023-02-11T10:30:08;15.80;70.70
13600;DHT22;6871;51.34740610;4.31323160;2023-02-11T10:32:45;15.80;70.70
13600;DHT22;6871;51.34740610;4.31323160;2023-02-11T10:35:19;15.80;70.50
13600;DHT22;6871;51.34740610;4.31323160;2023-02-11T10:37:50;15.70;70.80
13600;DHT22;6871;51.34740610;4.31323160;2023-02-11T10:40:22;15.70;71.00
13600;DHT22;6871;51.34740610;4.31323160;2023-02-11T10:42:56;15.70;70.90
13600;DHT22;6871;51.34740610;4.31323160;2023-02-11T10:45:29;15.70;70.90
13600;DHT22;6871;51.34740610;4.31323160;2023-02-11T10:48:03;15.70;71.10
13600;DHT22;6871;51.34740610;4.31323160;2023-02-11T10:50:35;15.70;71.20
13600;DHT22;6871;51.34740610;4.31323160;2023-02-11T10:53:15;15.70;70.90
13600;DHT22;6871;51.34740610;4.31323160;2023-02-11T10:55:54;15.70;70.80
13600;DHT22;6871;51.34740610;4.31323160;2023-02-11T10:58:26;15.70;70.70
13600;DHT22;6871;51.34740610;4.31323160;2023-02-11T11:00:59;15.70;70.60
13600;DHT22;6871;51.34740610;4.31323160;2023-02-11T11:03:49;15.70;70.50
13600;DHT22;6871;51.34740610;4.31323160;2023-02-11T11:06:31;15.80;70.50
13600;DHT22;6871;51.34740610;4.31323160;2023-02-11T11:09:04;15.80;70.50
13600;DHT22;6871;51.34740610;4.31323160;2023-02-11T11:11:51;15.80;70.10
13600;DHT22;6871;51.34740610;4.31323160;2023-02-11T11:14:22;15.80;70.50
13600;DHT22;6871;51.34740610;4.31323160;2023-02-11T11:16:59;15.80;70.50
13600;DHT22;6871;51.34740610;4.31323160;2023-02-11T11:19:29;15.80;70.60
13600;DHT22;6871;51.34740610;4.31323160;2023-02-11T11:22:00;15.80;70.70
13600;DHT22;6871;51.34740610;4.31323160;2023-02-11T11:24:39;15.80;70.60
13600;DHT22;6871;51.34740610;4.31323160;2023-02-11T11:27:14;15.80;70.50
13600;DHT22;6871;51.34740610;4.31323160;2023-02-11T11:29:42;15.80;70.50
13600;DHT22;6871;51.34740610;4.31323160;2023-02-11T11:32:14;15.80;70.70
13600;DHT22;6871;51.34740610;4.31323160;2023-02-11T11:34:51;15.80;70.70
13600;DHT22;6871;51.34740610;4.31323160;2023-02-11T11:37:26;15.80;70.70
13600;DHT22;6871;51.34740610;4.31323160;2023-02-11T11:39:59;15.80;70.90
13600;DHT22;6871;51.34740610;4.31323160;2023-02-11T11:42:34;15.80;71.10
13600;DHT22;6871;51.34740610;4.31323160;2023-02-11T11:45:24;15.80;71.00
13600;DHT22;6871;51.34740610;4.31323160;2023-02-11T11:47:58;15.80;70.90
13600;DHT22;6871;51.34740610;4.31323160;2023-02-11T11:50:32;15.80;70.90
13600;DHT22;6871;51.34740610;4.31323160;2023-02-11T11:53:15;15.80;70.90
13600;DHT22;6871;51.34740610;4.31323160;2023-02-11T11:55:48;15.90;71.00
13600;DHT22;6871;51.34740610;4.31323160;2023-02-11T11:58:27;15.80;70.90
13600;DHT22;6871;51.34740610;4.31323160;2023-02-11T12:01:03;15.90;70.90
13600;DHT22;6871;51.34740610;4.31323160;2023-02-11T12:06:48;15.90;71.10
13600;DHT22;6871;51.34740610;4.31323160;2023-02-11T12:09:24;15.80;71.10
13600;DHT22;6871;51.34740610;4.31323160;2023-02-11T12:12:21;15.80;71.20
13600;DHT22;6871;51.34740610;4.31323160;2023-02-11T12:14:58;15.80;71.10
13600;DHT22;6871;51.34740610;4.31323160;2023-02-11T12:17:36;15.80;71.20
13600;DHT22;6871;51.34740610;4.31323160;2023-02-11T12:20:19;15.80;71.30
13600;DHT22;6871;51.34740610;4.31323160;2023-02-11T12:23:00;15.80;71.30
13600;DHT22;6871;51.34740610;4.31323160;2023-02-11T12:25:33;15.80;71.20
13600;DHT22;6871;51.34740610;4.31323160;2023-02-11T12:28:12;15.80;71.40
13600;DHT22;6871;51.34740610;4.31323160;2023-02-11T12:30:58;15.80;71.30
13600;DHT22;6871;51.34740610;4.31323160;2023-02-11T12:33:47;15.80;71.30
13600;DHT22;6871;51.34740610;4.31323160;2023-02-11T12:36:21;15.80;71.50
13600;DHT22;6871;51.34740610;4.31323160;2023-02-11T12:38:57;15.80;71.50
13600;DHT22;6871;51.34740610;4.31323160;2023-02-11T12:41:34;15.80;71.40
13600;DHT22;6871;51.34740610;4.31323160;2023-02-11T12:44:24;15.80;71.40
13600;DHT22;6871;51.34740610;4.31323160;2023-02-11T12:46:57;15.80;71.50
13600;DHT22;6871;51.34740610;4.31323160;2023-02-11T12:49:39;15.80;71.50
13600;DHT22;6871;51.34740610;4.31323160;2023-02-11T12:52:18;15.80;71.60
13600;DHT22;6871;51.34740610;4.31323160;2023-02-11T12:54:52;15.80;71.60
13600;DHT22;6871;51.34740610;4.31323160;2023-02-11T12:57:24;15.80;72.00
13600;DHT22;6871;51.34740610;4.31323160;2023-02-11T12:59:59;15.80;71.90
13600;DHT22;6871;51.34740610;4.31323160;2023-02-11T13:02:33;15.80;71.90
13600;DHT22;6871;51.34740610;4.31323160;2023-02-11T13:05:09;15.80;72.00
13600;DHT22;6871;51.34740610;4.31323160;2023-02-11T13:07:42;15.80;71.90
13600;DHT22;6871;51.34740610;4.31323160;2023-02-11T13:10:29;15.80;71.90
13600;DHT22;6871;51.34740610;4.31323160;2023-02-11T13:13:00;15.80;72.30
13600;DHT22;6871;51.34740610;4.31323160;2023-02-11T13:16:02;15.80;72.10
13600;DHT22;6871;51.34740610;4.31323160;2023-02-11T13:18:48;15.80;72.20
13600;DHT22;6871;51.34740610;4.31323160;2023-02-11T13:21:27;15.80;72.30
13600;DHT22;6871;51.34740610;4.31323160;2023-02-11T13:24:00;15.80;72.20
13600;DHT22;6871;51.34740610;4.31323160;2023-02-11T13:26:37;15.80;72.30
13600;DHT22;6871;51.34740610;4.31323160;2023-02-11T13:29:25;15.80;72.20
13600;DHT22;6871;51.34740610;4.31323160;2023-02-11T13:32:06;15.80;72.30
13600;DHT22;6871;51.34740610;4.31323160;2023-02-11T13:34:56;15.80;72.40
13600;DHT22;6871;51.34740610;4.31323160;2023-02-11T13:37:30;15.80;72.30
13600;DHT22;6871;51.34740610;4.31323160;2023-02-11T13:40:05;15.80;72.50
13600;DHT22;6871;51.34740610;4.31323160;2023-02-11T13:42:56;15.80;72.60
13600;DHT22;6871;51.34740610;4.31323160;2023-02-11T13:45:32;15.80;72.60
13600;DHT22;6871;51.34740610;4.31323160;2023-02-11T13:48:26;15.80;72.50
13600;DHT22;6871;51.34740610;4.31323160;2023-02-11T13:54:28;15.70;72.90
13600;DHT22;6871;51.34740610;4.31323160;2023-02-11T14:44:32;15.70;73.70
13600;DHT22;6871;51.34740610;4.31323160;2023-02-11T14:47:10;15.50;74.40
13600;DHT22;6871;51.34740610;4.31323160;2023-02-11T14:49:41;15.50;74.70
13600;DHT22;6871;51.34740610;4.31323160;2023-02-11T15:08:30;15.40;74.90
13600;DHT22;6871;51.34740610;4.31323160;2023-02-11T15:25:14;15.60;74.20
13600;DHT22;6871;51.34740610;4.31323160;2023-02-11T15:27:54;15.60;74.20
13600;DHT22;6871;51.34740610;4.31323160;2023-02-11T15:43:44;15.60;74.20
13600;DHT22;6871;51.34740610;4.31323160;2023-02-11T15:46:17;15.50;75.30
13600;DHT22;6871;51.34740610;4.31323160;2023-02-11T15:48:50;15.50;75.00
13600;DHT22;6871;51.34740610;4.31323160;2023-02-11T15:51:23;15.50;74.80
13600;DHT22;6871;51.34740610;4.31323160;2023-02-11T15:53:59;15.60;74.60
13600;DHT22;6871;51.34740610;4.31323160;2023-02-11T16:05:42;15.70;74.20
13600;DHT22;6871;51.34740610;4.31323160;2023-02-11T16:22:14;15.70;73.90
13600;DHT22;6871;51.34740610;4.31323160;2023-02-11T16:24:46;15.60;74.60
13600;DHT22;6871;51.34740610;4.31323160;2023-02-11T16:50:18;15.70;74.60
13600;DHT22;6871;51.34740610;4.31323160;2023-02-11T17:10:40;15.70;74.40
13600;DHT22;6871;51.34740610;4.31323160;2023-02-11T17:13:46;16.80;69.60
13600;DHT22;6871;51.34740610;4.31323160;2023-02-11T17:16:40;16.50;70.50
13600;DHT22;6871;51.34740610;4.31323160;2023-02-11T17:19:41;16.30;71.20
13600;DHT22;6871;51.34740610;4.31323160;2023-02-11T17:26:09;16.10;72.20